createdAt,value
2019-03-02T00:00:22.709Z,6.59
2019-03-02T00:02:59.825Z,6.57
2019-03-02T00:05:36.278Z,6.47
2019-03-02T00:08:10.714Z,6.38
2019-03-02T00:10:45.860Z,6.43
2019-03-02T00:13:21.295Z,6.42
2019-03-02T00:15:56.080Z,6.39
2019-03-02T00:18:30.381Z,6.31
2019-03-02T00:21:06.129Z,6.31
2019-03-02T00:23:41.889Z,6.23
2019-03-02T00:26:15.287Z,6.25
2019-03-02T00:28:49.333Z,6.25
2019-03-02T00:31:23.939Z,6.21
2019-03-02T00:33:57.947Z,6.27
2019-03-02T00:36:31.140Z,6.16
2019-03-02T00:39:06.430Z,5.99
2019-03-02T00:41:43.050Z,5.69
2019-03-02T00:44:17.694Z,5.82
2019-03-02T00:46:52.284Z,5.82
2019-03-02T00:49:26.909Z,5.72
2019-03-02T00:52:01.117Z,5.61
2019-03-02T00:54:35.296Z,5.49
2019-03-02T00:57:09.762Z,5.59
2019-03-02T00:59:54.297Z,5.58
2019-03-02T01:02:30.884Z,5.69
2019-03-02T01:05:05.288Z,5.67
2019-03-02T01:07:39.706Z,5.55
2019-03-02T01:10:15.146Z,5.55
2019-03-02T01:12:49.449Z,5.58
2019-03-02T01:15:24.087Z,5.58
2019-03-02T01:17:58.653Z,5.63
2019-03-02T01:20:36.302Z,5.63
2019-03-02T01:23:10.904Z,5.49
2019-03-02T01:25:45.489Z,5.31
2019-03-02T01:28:20.078Z,5.17
2019-03-02T01:30:54.725Z,4.98
2019-03-02T01:33:29.366Z,4.98
2019-03-02T01:36:04.165Z,5.07
2019-03-02T01:38:39.002Z,4.96
2019-03-02T01:41:14.023Z,4.96
2019-03-02T01:43:53.316Z,5.06
2019-03-02T01:46:28.083Z,4.99
2019-03-02T01:49:07.957Z,4.86
2019-03-02T01:51:41.058Z,4.86
2019-03-02T01:54:17.868Z,4.81
2019-03-02T01:56:51.319Z,4.93
2019-03-02T01:59:25.957Z,4.93
2019-03-02T02:02:00.135Z,4.93
2019-03-02T02:04:36.122Z,4.84
2019-03-02T02:07:10.706Z,4.80
2019-03-02T02:09:45.496Z,4.92
2019-03-02T02:12:20.979Z,5.00
2019-03-02T02:14:56.654Z,5.08
2019-03-02T02:17:30.934Z,5.09
2019-03-02T02:20:04.043Z,5.02
2019-03-02T02:22:38.698Z,4.74
2019-03-02T02:25:16.389Z,4.53
2019-03-02T02:27:50.961Z,4.45
2019-03-02T02:30:26.895Z,4.50
2019-03-02T02:33:05.437Z,4.58
2019-03-02T02:35:40.175Z,4.59
2019-03-02T02:38:16.057Z,4.75
2019-03-02T02:40:53.312Z,4.82
2019-03-02T02:43:28.953Z,4.90
2019-03-02T02:46:02.059Z,5.06
2019-03-02T02:48:34.874Z,5.01
2019-03-02T02:51:12.097Z,4.63
2019-03-02T02:53:46.833Z,4.63
2019-03-02T02:56:21.460Z,4.75
2019-03-02T02:59:01.307Z,4.60
2019-03-02T03:01:33.596Z,4.42
2019-03-02T03:04:08.291Z,4.66
2019-03-02T03:06:42.793Z,4.70
2019-03-02T03:09:30.539Z,4.71
2019-03-02T03:12:06.284Z,4.71
2019-03-02T03:14:40.664Z,4.71
2019-03-02T03:17:15.290Z,4.66
2019-03-02T03:19:50.813Z,4.62
2019-03-02T03:22:23.994Z,4.60
2019-03-02T03:24:58.704Z,4.65
2019-03-02T03:27:36.017Z,4.73
2019-03-02T03:30:12.345Z,4.78
2019-03-02T03:32:54.643Z,4.86
2019-03-02T03:35:23.141Z,4.76
2019-03-02T03:37:58.718Z,4.77
2019-03-02T03:40:33.300Z,4.74
2019-03-02T03:43:07.778Z,4.63
2019-03-02T03:45:43.300Z,4.61
2019-03-02T03:48:19.337Z,4.58
2019-03-02T03:50:54.036Z,4.52
2019-03-02T03:53:31.822Z,4.52
2019-03-02T03:56:07.297Z,4.43
2019-03-02T03:58:42.956Z,4.30
2019-03-02T04:01:19.214Z,4.22
2019-03-02T04:03:56.130Z,4.22
2019-03-02T04:06:30.709Z,4.50
2019-03-02T04:09:08.433Z,4.50
2019-03-02T04:11:43.280Z,4.54
2019-03-02T04:14:18.999Z,4.69
2019-03-02T04:16:55.824Z,4.50
2019-03-02T04:19:35.949Z,4.64
2019-03-02T04:22:12.955Z,4.64
2019-03-02T04:24:49.304Z,4.68
2019-03-02T04:27:24.253Z,4.68
2019-03-02T04:30:03.797Z,4.68
2019-03-02T04:32:38.305Z,4.68
2019-03-02T04:35:12.960Z,4.74
2019-03-02T04:37:47.689Z,4.80
2019-03-02T04:40:27.976Z,4.82
2019-03-02T04:43:02.352Z,4.82
2019-03-02T04:45:39.751Z,4.76
2019-03-02T04:48:12.867Z,4.76
2019-03-02T04:50:47.294Z,4.78
2019-03-02T04:53:30.895Z,4.85
2019-03-02T04:56:04.055Z,4.97
2019-03-02T04:58:38.489Z,4.94
2019-03-02T05:01:13.252Z,4.74
2019-03-02T05:03:47.713Z,4.80
2019-03-02T05:06:24.332Z,4.92
2019-03-02T05:08:58.968Z,4.88
2019-03-02T05:11:35.441Z,4.68
2019-03-02T05:14:10.936Z,4.65
2019-03-02T05:16:44.142Z,4.68
2019-03-02T05:19:18.574Z,4.68
2019-03-02T05:21:54.287Z,4.77
2019-03-02T05:24:28.929Z,4.71
2019-03-02T05:27:03.297Z,4.83
2019-03-02T05:29:39.085Z,4.84
2019-03-02T05:32:16.077Z,4.84
2019-03-02T05:34:51.172Z,4.87
2019-03-02T05:37:26.288Z,4.84
2019-03-02T05:40:01.129Z,4.73
2019-03-02T05:42:38.290Z,4.73
2019-03-02T05:45:13.364Z,4.84
2019-03-02T05:47:52.346Z,4.79
2019-03-02T05:50:30.291Z,4.64
2019-03-02T05:53:05.927Z,4.64
2019-03-02T05:55:40.376Z,4.65
2019-03-02T05:58:17.151Z,4.55
2019-03-02T06:00:52.108Z,4.65
2019-03-02T06:03:28.767Z,4.63
2019-03-02T06:06:03.273Z,4.63
2019-03-02T06:08:37.705Z,4.49
2019-03-02T06:11:12.278Z,4.51
2019-03-02T06:13:46.884Z,4.58
2019-03-02T06:16:21.947Z,4.59
2019-03-02T06:18:56.921Z,4.68
2019-03-02T06:21:30.118Z,4.65
2019-03-02T06:24:06.595Z,4.69
2019-03-02T06:26:41.285Z,4.69
2019-03-02T06:29:16.728Z,4.64
2019-03-02T06:31:54.974Z,4.71
2019-03-02T06:34:30.478Z,4.73
2019-03-02T06:37:06.970Z,4.77
2019-03-02T06:39:44.414Z,4.86
2019-03-02T06:42:19.112Z,4.86
2019-03-02T06:45:05.700Z,4.85
2019-03-02T06:47:39.527Z,4.84
2019-03-02T06:50:14.948Z,4.85
2019-03-02T06:52:48.996Z,4.76
2019-03-02T06:55:24.706Z,4.85
2019-03-02T06:58:01.300Z,4.77
2019-03-02T07:00:36.073Z,4.74
2019-03-02T07:03:11.683Z,4.89
2019-03-02T07:05:46.285Z,4.89
2019-03-02T07:08:21.785Z,4.87
2019-03-02T07:10:57.988Z,4.86
2019-03-02T07:13:32.186Z,4.89
2019-03-02T07:16:06.867Z,4.97
2019-03-02T07:19:13.434Z,4.95
2019-03-02T07:21:49.334Z,5.05
2019-03-02T07:27:09.916Z,5.15
2019-03-02T07:32:29.319Z,5.11
2019-03-02T07:35:05.702Z,5.22
2019-03-02T07:37:40.649Z,5.28
2019-03-02T07:40:15.286Z,5.26
2019-03-02T07:42:49.955Z,5.38
2019-03-02T07:45:27.011Z,5.26
2019-03-02T07:48:06.287Z,5.36
2019-03-02T07:50:41.076Z,5.31
2019-03-02T07:53:16.901Z,5.44
2019-03-02T07:56:32.542Z,5.44
2019-03-02T08:00:31.913Z,5.48
2019-03-02T08:02:17.074Z,5.58
2019-03-02T08:05:10.901Z,5.58
2019-03-02T08:07:54.338Z,5.65
2019-03-02T08:10:38.675Z,5.70
2019-03-02T08:13:11.306Z,5.70
2019-03-02T08:15:47.307Z,5.75
2019-03-02T08:18:25.994Z,5.58
2019-03-02T08:21:00.711Z,5.68
2019-03-02T08:23:38.656Z,5.70
2019-03-02T08:26:13.278Z,5.72
2019-03-02T08:28:50.962Z,5.88
2019-03-02T08:31:29.290Z,5.88
2019-03-02T08:34:05.845Z,5.92
2019-03-02T08:36:41.301Z,6.05
2019-03-02T08:39:18.587Z,6.12
2019-03-02T08:42:12.246Z,6.06
2019-03-02T08:45:04.576Z,6.03
2019-03-02T08:50:22.135Z,5.93
2019-03-02T08:53:10.530Z,6.04
2019-03-02T08:56:11.894Z,6.04
2019-03-02T08:58:51.384Z,6.03
2019-03-02T09:01:33.315Z,6.12
2019-03-02T09:04:15.590Z,5.98
2019-03-02T09:06:59.810Z,5.86
2019-03-02T09:09:46.824Z,5.78
2019-03-02T09:12:30.025Z,5.85
2019-03-02T09:15:22.226Z,6.00
2019-03-02T09:18:01.604Z,6.27
2019-03-02T09:20:38.342Z,6.27
2019-03-02T09:23:17.667Z,6.09
2019-03-02T09:26:05.913Z,6.15
2019-03-02T09:28:57.522Z,6.15
2019-03-02T09:31:38.463Z,5.92
2019-03-02T09:34:18.601Z,5.90
2019-03-02T09:37:20.374Z,5.90
2019-03-02T09:40:13.381Z,6.08
2019-03-02T09:43:00.281Z,6.25
2019-03-02T09:45:49.250Z,6.25
2019-03-02T09:48:26.295Z,6.28
2019-03-02T09:51:07.308Z,6.15
2019-03-02T09:53:44.986Z,6.02
2019-03-02T09:56:19.871Z,6.13
2019-03-02T09:58:57.891Z,6.13
2019-03-02T10:01:31.277Z,6.09
2019-03-02T10:04:08.235Z,6.09
2019-03-02T10:06:43.351Z,6.16
2019-03-02T10:09:21.983Z,5.97
2019-03-02T10:11:56.900Z,6.03
2019-03-02T10:14:31.974Z,6.31
2019-03-02T10:17:09.285Z,6.31
2019-03-02T10:19:44.362Z,6.39
2019-03-02T10:22:26.298Z,6.40
2019-03-02T10:25:04.287Z,6.54
2019-03-02T10:27:47.018Z,6.59
2019-03-02T10:30:21.954Z,6.38
2019-03-02T10:32:57.494Z,6.26
2019-03-02T10:35:33.450Z,6.02
2019-03-02T10:38:08.315Z,6.18
2019-03-02T10:40:45.909Z,6.18
2019-03-02T10:43:21.927Z,6.24
2019-03-02T10:45:57.001Z,6.31
2019-03-02T10:48:31.882Z,6.31
2019-03-02T10:51:06.502Z,6.29
2019-03-02T10:53:42.381Z,6.25
2019-03-02T10:56:24.366Z,6.16
2019-03-02T10:59:04.604Z,6.06
2019-03-02T11:02:03.000Z,6.06
2019-03-02T11:04:54.732Z,6.13
2019-03-02T11:07:50.623Z,6.08
2019-03-02T11:10:52.336Z,6.19
2019-03-02T11:17:49.732Z,6.47
2019-03-02T11:20:40.104Z,6.53
2019-03-02T11:23:30.893Z,6.47
2019-03-02T11:26:25.985Z,6.47
2019-03-02T11:29:05.872Z,6.62
2019-03-02T11:32:20.314Z,6.62
2019-03-02T11:35:38.519Z,6.77
2019-03-02T11:38:33.330Z,6.77
2019-03-02T11:41:35.958Z,6.89
2019-03-02T11:44:32.313Z,7.08
2019-03-02T11:47:28.618Z,7.08
2019-03-02T11:50:21.806Z,7.08
2019-03-02T11:53:00.720Z,7.01
2019-03-02T11:55:40.757Z,7.20
2019-03-02T11:58:40.466Z,7.16
2019-03-02T12:01:48.640Z,7.14
2019-03-02T12:04:53.538Z,7.22
2019-03-02T12:07:58.744Z,7.28
2019-03-02T12:10:57.581Z,7.46
2019-03-02T12:13:38.958Z,7.70
2019-03-02T12:16:28.902Z,7.53
2019-03-02T12:19:16.162Z,7.53
2019-03-02T12:22:12.490Z,7.39
2019-03-02T12:25:04.780Z,7.42
2019-03-02T12:28:09.644Z,7.38
2019-03-02T12:31:18.691Z,7.37
2019-03-02T12:34:17.738Z,7.27
2019-03-02T12:37:20.486Z,7.35
2019-03-02T12:40:18.934Z,7.25
2019-03-02T12:43:04.070Z,7.22
2019-03-02T12:45:58.270Z,7.25
2019-03-02T12:49:06.973Z,7.16
2019-03-02T12:52:00.905Z,7.11
2019-03-02T12:54:44.589Z,7.07
2019-03-02T12:57:31.716Z,7.08
2019-03-02T13:00:22.655Z,7.13
2019-03-02T13:03:27.308Z,7.07
2019-03-02T13:06:19.788Z,6.99
2019-03-02T13:09:07.276Z,6.97
2019-03-02T13:11:53.945Z,7.10
2019-03-02T13:15:02.292Z,7.12
2019-03-02T13:17:54.567Z,6.96
2019-03-02T13:20:49.535Z,6.97
2019-03-02T13:23:48.285Z,6.90
2019-03-02T13:26:40.702Z,6.91
2019-03-02T13:29:27.944Z,7.13
2019-03-02T13:32:26.151Z,7.19
2019-03-02T13:35:15.282Z,7.27
2019-03-02T13:37:59.118Z,7.42
2019-03-02T13:40:47.697Z,7.42
2019-03-02T13:43:41.797Z,7.51
2019-03-02T13:46:24.821Z,7.53
2019-03-02T13:49:16.480Z,7.45
2019-03-02T13:52:12.681Z,7.28
2019-03-02T13:55:15.117Z,7.37
2019-03-02T13:58:17.992Z,7.42
2019-03-02T14:01:05.278Z,7.48
2019-03-02T14:03:54.275Z,7.48
2019-03-02T14:07:03.707Z,7.53
2019-03-02T14:09:54.022Z,7.47
2019-03-02T14:12:43.678Z,7.57
2019-03-02T14:15:34.613Z,7.67
2019-03-02T14:18:38.957Z,7.61
2019-03-02T14:21:23.284Z,7.68
2019-03-02T14:24:20.580Z,7.67
2019-03-02T14:27:05.836Z,7.70
2019-03-02T14:30:04.294Z,7.66
2019-03-02T14:32:52.061Z,7.66
2019-03-02T14:35:46.922Z,7.69
2019-03-02T14:38:45.959Z,7.62
2019-03-02T14:42:03.973Z,7.69
2019-03-02T14:45:01.803Z,7.69
2019-03-02T14:48:01.089Z,7.66
2019-03-02T14:50:54.275Z,7.52
2019-03-02T14:53:41.984Z,7.53
2019-03-02T14:56:36.876Z,7.62
2019-03-02T14:59:29.703Z,7.56
2019-03-02T15:02:16.678Z,7.53
2019-03-02T15:05:07.453Z,7.51
2019-03-02T15:08:05.328Z,7.43
2019-03-02T15:11:00.326Z,7.45
2019-03-02T15:13:57.106Z,7.54
2019-03-02T15:16:52.280Z,7.59
2019-03-02T15:19:58.140Z,7.58
2019-03-02T15:22:56.837Z,7.61
2019-03-02T15:25:49.961Z,7.53
2019-03-02T15:28:46.566Z,7.64
2019-03-02T15:31:43.260Z,7.64
2019-03-02T15:34:42.326Z,7.77
2019-03-02T15:37:25.302Z,7.46
2019-03-02T15:40:24.744Z,7.46
2019-03-02T15:43:34.325Z,7.41
2019-03-02T15:46:24.587Z,7.35
2019-03-02T15:49:24.118Z,7.41
2019-03-02T15:52:11.818Z,7.46
2019-03-02T15:54:57.408Z,7.41
2019-03-02T15:57:58.310Z,7.34
2019-03-02T16:00:50.590Z,7.34
2019-03-02T16:03:57.198Z,7.36
2019-03-02T16:06:36.385Z,7.34
2019-03-02T16:09:29.003Z,7.31
2019-03-02T16:12:21.383Z,7.25
2019-03-02T16:15:22.081Z,7.25
2019-03-02T16:18:16.542Z,7.39
2019-03-02T16:20:59.407Z,7.41
2019-03-02T16:24:07.634Z,7.37
2019-03-02T16:27:06.804Z,7.36
2019-03-02T16:29:52.747Z,7.36
2019-03-02T16:32:46.353Z,7.43
2019-03-02T16:35:42.662Z,7.43
2019-03-02T16:38:38.940Z,7.42
2019-03-02T16:41:34.347Z,7.28
2019-03-02T16:44:24.458Z,7.18
2019-03-02T16:47:31.400Z,7.32
2019-03-02T16:50:38.311Z,7.36
2019-03-02T16:53:32.667Z,7.31
2019-03-02T16:56:28.792Z,7.26
2019-03-02T16:59:32.333Z,7.22
2019-03-02T17:02:17.941Z,7.17
2019-03-02T17:05:18.282Z,7.14
2019-03-02T17:08:13.581Z,7.10
2019-03-02T17:11:02.321Z,7.09
2019-03-02T17:14:09.269Z,7.19
2019-03-02T17:16:54.950Z,7.09
2019-03-02T17:19:57.080Z,7.12
2019-03-02T17:22:56.364Z,7.23
2019-03-02T17:25:45.335Z,7.23
2019-03-02T17:28:35.387Z,7.06
2019-03-02T17:31:39.766Z,7.13
2019-03-02T17:34:31.385Z,7.17
2019-03-02T17:37:17.601Z,7.21
2019-03-02T17:40:14.631Z,7.11
2019-03-02T17:43:22.944Z,7.13
2019-03-02T17:46:17.681Z,7.16
2019-03-02T17:49:07.763Z,7.12
2019-03-02T17:51:57.278Z,7.05
2019-03-02T17:54:53.844Z,7.08
2019-03-02T17:57:35.294Z,7.20
2019-03-02T18:00:27.615Z,7.21
2019-03-02T18:03:26.699Z,7.24
2019-03-02T18:06:23.820Z,7.21
2019-03-02T18:09:07.263Z,7.23
2019-03-02T18:12:00.410Z,7.08
2019-03-02T18:15:04.384Z,7.14
2019-03-02T18:17:55.515Z,7.18
2019-03-02T18:20:29.044Z,7.20
2019-03-02T18:23:04.301Z,7.28
2019-03-02T18:25:38.794Z,7.21
2019-03-02T18:28:16.096Z,7.18
2019-03-02T18:30:50.885Z,7.12
2019-03-02T18:33:29.137Z,7.15
2019-03-02T18:36:04.293Z,7.20
2019-03-02T18:38:44.478Z,7.20
2019-03-02T18:41:18.244Z,7.19
2019-03-02T18:44:01.378Z,7.17
2019-03-02T18:46:43.292Z,7.28
2019-03-02T18:49:47.464Z,7.28
2019-03-02T18:52:38.946Z,7.26
2019-03-02T18:55:13.270Z,7.28
2019-03-02T18:57:55.946Z,7.25
2019-03-02T19:01:35.715Z,7.25
2019-03-02T19:04:14.448Z,7.25
2019-03-02T19:06:50.154Z,7.23
2019-03-02T19:09:32.071Z,7.24
2019-03-02T19:12:03.310Z,7.26
2019-03-02T19:14:40.313Z,7.26
2019-03-02T19:17:16.287Z,7.27
2019-03-02T19:19:50.948Z,7.20
2019-03-02T19:22:24.100Z,7.26
2019-03-02T19:25:24.959Z,7.27
2019-03-02T19:27:59.785Z,7.27
2019-03-02T19:30:33.111Z,7.25
2019-03-02T19:33:07.788Z,7.33
2019-03-02T19:35:45.270Z,7.33
2019-03-02T19:38:20.881Z,7.35
2019-03-02T19:40:57.277Z,7.35
2019-03-02T19:43:34.387Z,7.30
2019-03-02T19:46:14.783Z,7.29
2019-03-02T19:49:02.546Z,7.37
2019-03-02T19:51:36.815Z,7.38
2019-03-02T19:54:18.115Z,7.31
2019-03-02T19:56:55.955Z,7.31
2019-03-02T19:59:35.549Z,7.23
2019-03-02T20:02:15.039Z,7.30
2019-03-02T20:05:01.925Z,7.24
2019-03-02T20:07:44.958Z,7.24
2019-03-02T20:10:26.298Z,7.22
2019-03-02T20:13:11.625Z,7.19
2019-03-02T20:15:47.500Z,7.24
2019-03-02T20:18:23.305Z,7.32
2019-03-02T20:21:09.488Z,7.32
2019-03-02T20:23:48.722Z,7.31
2019-03-02T20:26:27.456Z,7.31
2019-03-02T20:29:15.223Z,7.26
2019-03-02T20:31:55.971Z,7.26
2019-03-02T20:34:31.017Z,7.31
2019-03-02T20:37:16.792Z,7.31
2019-03-02T20:40:09.749Z,7.35
2019-03-02T20:43:06.697Z,7.38
2019-03-02T20:46:00.326Z,7.37
2019-03-02T20:48:35.269Z,7.35
2019-03-02T20:51:10.312Z,7.41
2019-03-02T20:53:45.099Z,7.47
2019-03-02T20:56:24.061Z,7.55
2019-03-02T20:58:59.413Z,7.56
2019-03-02T21:01:39.956Z,7.56
2019-03-02T21:04:15.961Z,7.51
2019-03-02T21:07:19.617Z,7.49
2019-03-02T21:10:41.811Z,7.47
2019-03-02T21:13:17.382Z,7.55
2019-03-02T21:15:53.280Z,7.55
2019-03-02T21:18:30.292Z,7.54
2019-03-02T21:21:07.930Z,7.61
2019-03-02T21:23:43.386Z,7.58
2019-03-02T21:26:19.200Z,7.58
2019-03-02T21:28:53.984Z,7.63
2019-03-02T21:31:29.136Z,7.58
2019-03-02T21:34:03.776Z,7.58
2019-03-02T21:36:41.964Z,7.61
2019-03-02T21:39:17.008Z,7.66
2019-03-02T21:41:53.416Z,7.64
2019-03-02T21:44:28.146Z,7.69
2019-03-02T21:47:03.296Z,7.69
2019-03-02T21:49:43.290Z,7.78
2019-03-02T21:52:18.914Z,7.80
2019-03-02T21:54:54.432Z,7.81
2019-03-02T21:57:31.295Z,7.80
2019-03-02T22:00:18.390Z,7.79
2019-03-02T22:02:54.284Z,7.79
2019-03-02T22:05:28.964Z,7.80
2019-03-02T22:08:05.683Z,7.88
2019-03-02T22:10:58.309Z,7.88
2019-03-02T22:13:34.172Z,7.93
2019-03-02T22:16:08.960Z,7.90
2019-03-02T22:18:42.073Z,7.88
2019-03-02T22:21:16.307Z,7.89
2019-03-02T22:23:54.307Z,7.93
2019-03-02T22:26:29.163Z,7.91
2019-03-02T22:29:04.737Z,7.96
2019-03-02T22:31:39.382Z,8.00
2019-03-02T22:34:14.298Z,8.02
2019-03-02T22:36:49.952Z,8.08
2019-03-02T22:39:24.473Z,8.10
2019-03-02T22:42:00.294Z,8.16
2019-03-02T22:44:39.280Z,8.18
2019-03-02T22:47:14.288Z,8.23
2019-03-02T22:49:55.094Z,8.19
2019-03-02T22:52:29.676Z,8.41
2019-03-02T22:55:07.617Z,8.41
2019-03-02T22:57:49.832Z,8.39
2019-03-02T23:01:42.543Z,8.39
2019-03-02T23:04:17.136Z,8.39
2019-03-02T23:06:51.752Z,8.49
2019-03-02T23:09:27.675Z,8.49
2019-03-02T23:12:05.318Z,8.50
2019-03-02T23:14:39.930Z,8.50
2019-03-02T23:17:18.161Z,8.51
2019-03-02T23:19:52.960Z,8.54
2019-03-02T23:22:26.053Z,8.55
2019-03-02T23:25:00.310Z,8.62
2019-03-02T23:27:34.965Z,8.61
2019-03-02T23:30:24.877Z,8.63
2019-03-02T23:32:59.365Z,8.63
2019-03-02T23:35:35.141Z,8.70
2019-03-02T23:38:10.478Z,8.64
2019-03-02T23:40:46.285Z,8.67
2019-03-02T23:43:21.305Z,8.61
2019-03-02T23:45:55.963Z,8.64
2019-03-02T23:48:33.455Z,8.61
2019-03-02T23:51:07.955Z,8.59
2019-03-02T23:53:43.653Z,8.50
2019-03-02T23:56:18.281Z,8.56
2019-03-02T23:58:53.305Z,8.54
